Time;durP1;ratioP1;P1;durP2;ratioP2;P2;SDS_P1;SDS_P2;PMS_P1;PMS_P2;Temp;Humidity;BMP_temperature;BMP_pressure;BME280_temperature;BME280_humidity;BME280_pressure;Samples;Min_cycle;Max_cycle;Signal;HPM_P1;HPM_P2
2022/05/15 00:00:56;;;;;;;0.00;0.00;;;;;;;;;;5056586;28;20092;-57
2022/05/15 00:03:22;;;;;;;0.00;0.00;;;;;;;;;;5055785;28;20491;-59
2022/05/15 00:05:55;;;;;;;0.00;0.00;;;;;;;;;;5052689;28;20028;-58
2022/05/15 00:08:20;;;;;;;0.00;0.00;;;;;;;;;;5054927;28;20102;-59
2022/05/15 00:10:46;;;;;;;0.00;0.00;;;;;;;;;;5059978;28;20474;-58
2022/05/15 00:13:11;;;;;;;0.00;0.00;;;;;;;;;;5056064;28;20029;-59
2022/05/15 00:15:37;;;;;;;0.00;0.00;;;;;;;;;;5050840;28;20531;-60
2022/05/15 00:18:03;;;;;;;0.00;0.00;;;;;;;;;;5059484;28;20020;-59
2022/05/15 00:20:28;;;;;;;0.00;0.00;;;;;;;;;;5055613;28;20032;-58
2022/05/15 00:22:54;;;;;;;0.00;0.00;;;;;;;;;;5060477;28;20056;-58
2022/05/15 00:25:19;;;;;;;0.00;0.00;;;;;;;;;;5051191;28;20083;-58
2022/05/15 00:27:44;;;;;;;0.10;0.10;;;;;;;;;;5051525;28;20017;-58
2022/05/15 00:30:09;;;;;;;0.00;0.00;;;;;;;;;;5054199;28;20097;-58
2022/05/15 00:32:35;;;;;;;0.00;0.00;;;;;;;;;;5049007;28;20056;-56
2022/05/15 00:35:00;;;;;;;0.00;0.00;;;;;;;;;;5063707;28;20029;-59
2022/05/15 00:37:25;;;;;;;0.00;0.00;;;;;;;;;;5054563;28;20031;-57
2022/05/15 00:39:50;;;;;;;0.00;0.00;;;;;;;;;;5059199;28;20656;-59
2022/05/15 00:42:16;;;;;;;0.00;0.00;;;;;;;;;;5046326;28;20482;-58
2022/05/15 00:44:41;;;;;;;0.00;0.00;;;;;;;;;;5053742;28;20377;-56
2022/05/15 00:47:06;;;;;;;0.10;0.10;;;;;;;;;;5060927;28;20083;-57
2022/05/15 00:49:34;;;;;;;0.00;0.00;;;;;;;;;;5060049;28;20027;-58
2022/05/15 00:52:01;;;;;;;0.00;0.00;;;;;;;;;;5050721;28;20051;-57
2022/05/15 00:54:30;;;;;;;0.00;0.00;;;;;;;;;;5052336;28;20078;-58
2022/05/15 00:57:00;;;;;;;0.80;0.80;;;;;;;;;;5055683;28;20021;-58
2022/05/15 00:59:27;;;;;;;0.35;0.35;;;;;;;;;;5039718;28;20035;-55
2022/05/15 01:01:52;;;;;;;0.00;0.00;;;;;;;;;;5053578;28;20082;-54
2022/05/15 01:04:18;;;;;;;0.00;0.00;;;;;;;;;;5055234;28;20036;-55
2022/05/15 01:06:44;;;;;;;0.00;0.00;;;;;;;;;;5062814;28;20017;-56
2022/05/15 01:09:09;;;;;;;0.00;0.00;;;;;;;;;;5060544;28;20023;-55
2022/05/15 01:11:36;;;;;;;4.70;4.47;;;;;;;;;;5047745;28;20032;-57
2022/05/15 01:14:05;;;;;;;0.00;0.00;;;;;;;;;;5059326;28;20491;-56
2022/05/15 01:16:31;;;;;;;0.00;0.00;;;;;;;;;;5059594;28;20028;-52
2022/05/15 01:18:57;;;;;;;0.00;0.00;;;;;;;;;;5043361;28;20044;-53
2022/05/15 01:21:24;;;;;;;1.17;1.17;;;;;;;;;;5055107;28;20032;-54
2022/05/15 01:23:50;;;;;;;0.00;0.00;;;;;;;;;;5054766;28;20025;-54
2022/05/15 01:26:15;;;;;;;0.00;0.00;;;;;;;;;;5056485;28;20017;-53
2022/05/15 01:28:41;;;;;;;0.00;0.00;;;;;;;;;;5050158;28;20064;-54
2022/05/15 01:31:06;;;;;;;0.00;0.00;;;;;;;;;;5060041;28;20481;-53
2022/05/15 01:33:31;;;;;;;0.00;0.00;;;;;;;;;;5057577;28;20059;-54
2022/05/15 01:35:57;;;;;;;3.92;3.72;;;;;;;;;;5052765;28;20061;-57
2022/05/15 01:38:22;;;;;;;0.00;0.00;;;;;;;;;;5046472;28;20016;-56
2022/05/15 01:40:48;;;;;;;0.00;0.00;;;;;;;;;;5047039;28;20108;-55
2022/05/15 01:43:14;;;;;;;0.15;0.15;;;;;;;;;;5050417;28;20045;-58
2022/05/15 01:45:39;;;;;;;0.00;0.00;;;;;;;;;;5051777;28;20507;-57
2022/05/15 01:48:04;;;;;;;0.00;0.00;;;;;;;;;;5050194;28;20032;-56
2022/05/15 01:50:30;;;;;;;0.00;0.00;;;;;;;;;;5053437;28;20405;-56
2022/05/15 01:52:55;;;;;;;0.25;0.20;;;;;;;;;;5056989;28;20477;-56
2022/05/15 01:55:21;;;;;;;0.00;0.00;;;;;;;;;;5059004;28;20021;-57
2022/05/15 01:57:46;;;;;;;0.00;0.00;;;;;;;;;;5054105;28;20024;-53
2022/05/15 02:00:14;;;;;;;0.00;0.00;;;;;;;;;;5060020;28;20077;-56
2022/05/15 02:02:40;;;;;;;0.00;0.00;;;;;;;;;;5051626;28;20051;-56
2022/05/15 02:05:06;;;;;;;0.00;0.00;;;;;;;;;;5049889;28;20530;-56
2022/05/15 02:07:31;;;;;;;0.00;0.00;;;;;;;;;;5050084;28;20028;-53
2022/05/15 02:09:56;;;;;;;1.08;1.08;;;;;;;;;;5052550;28;20369;-57
2022/05/15 02:12:22;;;;;;;6.60;1.08;;;;;;;;;;5045510;28;20016;-56
2022/05/15 02:14:47;;;;;;;0.00;0.00;;;;;;;;;;5036749;28;20045;-57
2022/05/15 02:17:12;;;;;;;0.00;0.00;;;;;;;;;;5045623;28;20051;-56
2022/05/15 02:19:37;;;;;;;0.00;0.00;;;;;;;;;;5050893;28;20782;-54
2022/05/15 02:22:03;;;;;;;0.00;0.00;;;;;;;;;;5056054;28;20485;-55
2022/05/15 02:24:28;;;;;;;0.00;0.00;;;;;;;;;;5052407;28;20048;-51
2022/05/15 02:26:53;;;;;;;0.00;0.00;;;;;;;;;;5060666;28;20036;-56
2022/05/15 02:29:19;;;;;;;0.00;0.00;;;;;;;;;;5048308;28;20486;-57
2022/05/15 02:31:44;;;;;;;0.00;0.00;;;;;;;;;;5054220;28;20474;-57
2022/05/15 02:34:09;;;;;;;3.15;3.00;;;;;;;;;;5050720;28;20029;-56
2022/05/15 02:36:35;;;;;;;0.00;0.00;;;;;;;;;;5052781;28;20025;-58
2022/05/15 02:39:00;;;;;;;0.00;0.00;;;;;;;;;;5051693;28;20052;-54
2022/05/15 02:41:25;;;;;;;0.95;0.95;;;;;;;;;;5048994;28;20012;-56
2022/05/15 02:43:50;;;;;;;0.68;0.43;;;;;;;;;;5055416;28;20017;-56
2022/05/15 02:46:16;;;;;;;0.03;0.03;;;;;;;;;;5053403;28;20053;-53
2022/05/15 02:51:25;;;;;;;0.32;0.30;;;;;;;;;;5056841;28;20052;-57
2022/05/15 02:53:50;;;;;;;0.08;0.08;;;;;;;;;;5060749;28;20017;-55
2022/05/15 02:56:23;;;;;;;0.00;0.00;;;;;;;;;;5054530;28;20570;-57
2022/05/15 02:58:48;;;;;;;0.25;0.25;;;;;;;;;;5064255;28;20029;-58
2022/05/15 03:01:14;;;;;;;0.10;0.10;;;;;;;;;;5057275;28;20104;-57
2022/05/15 03:03:39;;;;;;;0.00;0.00;;;;;;;;;;5061171;28;20032;-58
2022/05/15 03:06:06;;;;;;;0.00;0.00;;;;;;;;;;5062721;28;20021;-57
2022/05/15 03:08:32;;;;;;;0.00;0.00;;;;;;;;;;5058270;28;20021;-58
2022/05/15 03:10:57;;;;;;;0.00;0.00;;;;;;;;;;5062062;28;20086;-58
2022/05/15 03:13:23;;;;;;;0.32;0.32;;;;;;;;;;5054617;28;20044;-59
2022/05/15 03:15:48;;;;;;;0.00;0.00;;;;;;;;;;5059474;28;20028;-58
2022/05/15 03:18:13;;;;;;;0.00;0.00;;;;;;;;;;5055253;28;20017;-59
2022/05/15 03:20:39;;;;;;;0.30;0.30;;;;;;;;;;5059234;28;20017;-58
2022/05/15 03:23:04;;;;;;;0.17;0.17;;;;;;;;;;5053933;28;20470;-60
2022/05/15 03:25:31;;;;;;;1.73;1.60;;;;;;;;;;5061558;28;20415;-60
2022/05/15 03:27:57;;;;;;;0.43;0.43;;;;;;;;;;5061927;28;20021;-58
2022/05/15 03:30:22;;;;;;;0.30;0.30;;;;;;;;;;5057207;28;20116;-58
2022/05/15 03:32:47;;;;;;;0.90;0.90;;;;;;;;;;5038601;28;20460;-56
2022/05/15 03:35:14;;;;;;;0.32;0.32;;;;;;;;;;5057784;28;20424;-54
2022/05/15 03:37:40;;;;;;;0.00;0.00;;;;;;;;;;5052337;28;20115;-56
2022/05/15 03:40:06;;;;;;;0.00;0.00;;;;;;;;;;5048864;28;20140;-56
2022/05/15 03:42:31;;;;;;;0.00;0.00;;;;;;;;;;5052877;28;20028;-57
2022/05/15 03:44:57;;;;;;;0.00;0.00;;;;;;;;;;5058268;28;20021;-56
2022/05/15 03:47:22;;;;;;;0.17;0.17;;;;;;;;;;5058975;28;20024;-57
2022/05/15 03:49:48;;;;;;;0.00;0.00;;;;;;;;;;5060875;28;20041;-57
2022/05/15 03:52:14;;;;;;;0.00;0.00;;;;;;;;;;5053565;28;20029;-58
2022/05/15 03:54:39;;;;;;;0.00;0.00;;;;;;;;;;5059576;28;20024;-54
2022/05/15 03:57:04;;;;;;;0.25;0.25;;;;;;;;;;5057271;28;20028;-59
2022/05/15 03:59:32;;;;;;;0.00;0.00;;;;;;;;;;5058507;28;20033;-59
2022/05/15 04:02:00;;;;;;;0.00;0.00;;;;;;;;;;5051712;28;20481;-59
2022/05/15 04:04:26;;;;;;;0.00;0.00;;;;;;;;;;5049600;28;20083;-59
2022/05/15 04:06:51;;;;;;;0.00;0.00;;;;;;;;;;5054326;28;20025;-58
2022/05/15 04:09:16;;;;;;;0.00;0.00;;;;;;;;;;5061390;28;20423;-58
2022/05/15 04:11:42;;;;;;;0.00;0.00;;;;;;;;;;5057302;28;20064;-59
2022/05/15 04:14:07;;;;;;;0.00;0.00;;;;;;;;;;5049334;28;20017;-58
2022/05/15 04:16:32;;;;;;;0.28;0.15;;;;;;;;;;5046202;28;20746;-57
2022/05/15 04:18:58;;;;;;;0.15;0.15;;;;;;;;;;5051702;28;20587;-59
2022/05/15 04:21:24;;;;;;;1.45;0.70;;;;;;;;;;5050865;28;20772;-57
2022/05/15 04:23:49;;;;;;;0.00;0.00;;;;;;;;;;5047780;28;20029;-56
2022/05/15 04:26:14;;;;;;;0.00;0.00;;;;;;;;;;5060815;28;20021;-55
2022/05/15 04:28:39;;;;;;;0.15;0.15;;;;;;;;;;5039838;28;20048;-57
2022/05/15 04:31:05;;;;;;;0.00;0.00;;;;;;;;;;5056774;28;20366;-58
2022/05/15 04:33:30;;;;;;;0.00;0.00;;;;;;;;;;5060202;28;20517;-58
2022/05/15 04:35:56;;;;;;;0.32;0.32;;;;;;;;;;5057353;28;20031;-58
2022/05/15 04:38:21;;;;;;;8.80;1.52;;;;;;;;;;5059241;28;20013;-59
2022/05/15 04:40:46;;;;;;;8.88;0.90;;;;;;;;;;5060932;28;20046;-59
2022/05/15 04:43:11;;;;;;;0.52;0.52;;;;;;;;;;5060202;28;20028;-58
2022/05/15 04:45:36;;;;;;;0.00;0.00;;;;;;;;;;5058468;28;20029;-59
2022/05/15 04:48:02;;;;;;;0.55;0.55;;;;;;;;;;5051295;28;20017;-59
2022/05/15 04:50:27;;;;;;;1.73;1.63;;;;;;;;;;5045946;28;20040;-58
2022/05/15 04:52:52;;;;;;;0.00;0.00;;;;;;;;;;5055137;28;20085;-58
2022/05/15 04:55:17;;;;;;;0.00;0.00;;;;;;;;;;5050362;28;20013;-58
2022/05/15 04:57:43;;;;;;;0.00;0.00;;;;;;;;;;5048585;28;20013;-59
2022/05/15 05:00:14;;;;;;;0.52;0.52;;;;;;;;;;5052714;28;20021;-58
2022/05/15 05:02:39;;;;;;;1.85;1.85;;;;;;;;;;5058593;28;20028;-58
2022/05/15 05:05:05;;;;;;;0.05;0.05;;;;;;;;;;5054890;28;20482;-59
2022/05/15 05:07:30;;;;;;;0.00;0.00;;;;;;;;;;5050356;28;20033;-59
2022/05/15 05:09:56;;;;;;;0.00;0.00;;;;;;;;;;5051509;28;20028;-59
2022/05/15 05:12:21;;;;;;;0.00;0.00;;;;;;;;;;5043834;28;20026;-58
2022/05/15 05:14:46;;;;;;;0.65;0.65;;;;;;;;;;5047599;28;20032;-58
2022/05/15 05:17:12;;;;;;;0.00;0.00;;;;;;;;;;5059157;28;20111;-60
2022/05/15 05:19:37;;;;;;;0.00;0.00;;;;;;;;;;5060336;28;20175;-59
2022/05/15 05:22:03;;;;;;;2.10;2.00;;;;;;;;;;5061708;28;20074;-59
2022/05/15 05:24:29;;;;;;;0.00;0.00;;;;;;;;;;5053429;28;20023;-59
2022/05/15 05:26:54;;;;;;;0.00;0.00;;;;;;;;;;5059742;28;20037;-59
2022/05/15 05:29:19;;;;;;;0.93;0.45;;;;;;;;;;5054244;28;20164;-58
2022/05/15 05:31:44;;;;;;;0.00;0.00;;;;;;;;;;5053556;28;20101;-60
2022/05/15 05:34:09;;;;;;;0.32;0.32;;;;;;;;;;5053876;28;20029;-57
2022/05/15 05:36:35;;;;;;;0.00;0.00;;;;;;;;;;5056326;28;20047;-57
2022/05/15 05:39:00;;;;;;;2.17;0.60;;;;;;;;;;5058182;28;20032;-57
2022/05/15 05:41:25;;;;;;;0.00;0.00;;;;;;;;;;5051327;28;20052;-57
2022/05/15 05:43:50;;;;;;;0.00;0.00;;;;;;;;;;5050753;28;20021;-58
2022/05/15 05:46:16;;;;;;;0.20;0.20;;;;;;;;;;5053529;28;20035;-58
2022/05/15 05:48:45;;;;;;;0.00;0.00;;;;;;;;;;5053955;28;20028;-57
2022/05/15 05:51:12;;;;;;;0.22;0.22;;;;;;;;;;5052408;28;20396;-58
2022/05/15 05:53:37;;;;;;;0.00;0.00;;;;;;;;;;5052059;28;20025;-58
2022/05/15 05:56:02;;;;;;;0.00;0.00;;;;;;;;;;5059064;28;20040;-58
2022/05/15 05:58:27;;;;;;;0.15;0.15;;;;;;;;;;5052853;28;20070;-58
2022/05/15 06:00:53;;;;;;;0.00;0.00;;;;;;;;;;5046819;28;20112;-58
2022/05/15 06:06:02;;;;;;;0.00;0.00;;;;;;;;;;5055157;28;20032;-59
2022/05/15 06:08:28;;;;;;;0.52;0.20;;;;;;;;;;5046539;28;20474;-59
2022/05/15 06:10:53;;;;;;;0.00;0.00;;;;;;;;;;5058382;28;20102;-59
2022/05/15 06:13:18;;;;;;;0.00;0.00;;;;;;;;;;5058443;28;20033;-58
2022/05/15 06:15:43;;;;;;;0.08;0.08;;;;;;;;;;5055907;28;20017;-59
2022/05/15 06:18:09;;;;;;;0.00;0.00;;;;;;;;;;5051759;28;20066;-59
2022/05/15 06:20:34;;;;;;;0.10;0.10;;;;;;;;;;5057915;28;20043;-59
2022/05/15 06:22:59;;;;;;;0.00;0.00;;;;;;;;;;5054794;28;20028;-58
2022/05/15 06:25:25;;;;;;;0.10;0.10;;;;;;;;;;5056316;28;20029;-58
2022/05/15 06:27:50;;;;;;;1.00;0.55;;;;;;;;;;5053253;28;20259;-61
2022/05/15 06:30:16;;;;;;;1.17;1.17;;;;;;;;;;5064566;28;20068;-58
2022/05/15 06:32:42;;;;;;;0.00;0.00;;;;;;;;;;5062819;28;20381;-58
2022/05/15 06:35:08;;;;;;;0.73;0.73;;;;;;;;;;5064187;28;20021;-57
2022/05/15 06:37:33;;;;;;;0.00;0.00;;;;;;;;;;5060615;28;20079;-59
2022/05/15 06:39:59;;;;;;;0.00;0.00;;;;;;;;;;5058740;28;20022;-57
2022/05/15 06:42:25;;;;;;;1.95;1.55;;;;;;;;;;5041960;28;20112;-60
2022/05/15 06:44:50;;;;;;;1.05;0.70;;;;;;;;;;5059336;28;20158;-58
2022/05/15 06:47:16;;;;;;;0.00;0.00;;;;;;;;;;5057840;28;20032;-59
2022/05/15 06:49:41;;;;;;;1.08;1.08;;;;;;;;;;5057561;28;20024;-57
2022/05/15 06:52:06;;;;;;;1.13;0.93;;;;;;;;;;5050169;28;20021;-54
2022/05/15 06:54:32;;;;;;;0.00;0.00;;;;;;;;;;5049687;28;20035;-56
2022/05/15 06:59:41;;;;;;;0.82;0.68;;;;;;;;;;5056895;28;20542;-56
2022/05/15 07:02:07;;;;;;;1.75;1.65;;;;;;;;;;5051113;28;20017;-53
2022/05/15 07:04:32;;;;;;;1.63;0.55;;;;;;;;;;5055208;28;20048;-52
2022/05/15 07:06:57;;;;;;;0.60;0.60;;;;;;;;;;5058320;28;20049;-55
2022/05/15 07:09:22;;;;;;;0.05;0.05;;;;;;;;;;5053942;28;20469;-52
2022/05/15 07:11:48;;;;;;;2.63;0.77;;;;;;;;;;5056812;28;20100;-53
2022/05/15 07:14:13;;;;;;;0.00;0.00;;;;;;;;;;5057459;28;20260;-52
2022/05/15 07:16:39;;;;;;;3.22;2.47;;;;;;;;;;5059231;28;20289;-55
2022/05/15 07:19:04;;;;;;;0.50;0.50;;;;;;;;;;5051516;28;20178;-56
2022/05/15 07:21:29;;;;;;;0.20;0.20;;;;;;;;;;5051719;28;20052;-56
2022/05/15 07:23:55;;;;;;;0.00;0.00;;;;;;;;;;5061879;28;20380;-57
2022/05/15 07:26:20;;;;;;;0.20;0.20;;;;;;;;;;5058057;28;20270;-54
2022/05/15 07:28:50;;;;;;;0.45;0.45;;;;;;;;;;5059720;28;20053;-57
2022/05/15 07:31:18;;;;;;;0.73;0.73;;;;;;;;;;5054598;28;20021;-54
2022/05/15 07:33:43;;;;;;;0.27;0.27;;;;;;;;;;5058973;28;20024;-54
2022/05/15 07:36:09;;;;;;;0.00;0.00;;;;;;;;;;5057492;28;20287;-55
2022/05/15 07:38:34;;;;;;;2.15;1.98;;;;;;;;;;5055624;28;20024;-54
2022/05/15 07:41:00;;;;;;;1.95;1.85;;;;;;;;;;5050873;28;20029;-53
2022/05/15 07:43:25;;;;;;;0.32;0.32;;;;;;;;;;5048135;28;20032;-54
2022/05/15 07:45:50;;;;;;;0.00;0.00;;;;;;;;;;5055377;28;20084;-55
2022/05/15 07:48:16;;;;;;;0.15;0.15;;;;;;;;;;5052438;28;20112;-55
2022/05/15 07:50:41;;;;;;;0.10;0.10;;;;;;;;;;5056582;28;20457;-56
2022/05/15 07:53:06;;;;;;;0.00;0.00;;;;;;;;;;5058123;28;20488;-59
2022/05/15 07:55:31;;;;;;;0.00;0.00;;;;;;;;;;5062407;28;20021;-58
2022/05/15 07:57:57;;;;;;;0.00;0.00;;;;;;;;;;5058432;28;20027;-55
2022/05/15 08:00:22;;;;;;;2.95;1.35;;;;;;;;;;5058705;28;20275;-57
2022/05/15 08:02:47;;;;;;;0.00;0.00;;;;;;;;;;5057362;28;20033;-55
2022/05/15 08:08:02;;;;;;;0.00;0.00;;;;;;;;;;5053615;28;20040;-57
2022/05/15 08:10:32;;;;;;;2.80;0.65;;;;;;;;;;5057734;28;20028;-57
2022/05/15 08:12:58;;;;;;;0.00;0.00;;;;;;;;;;5058324;28;20029;-58
2022/05/15 08:15:23;;;;;;;0.00;0.00;;;;;;;;;;5058751;28;20019;-57
2022/05/15 08:17:48;;;;;;;0.20;0.20;;;;;;;;;;5052269;28;20087;-57
2022/05/15 08:23:33;;;;;;;2.83;1.30;;;;;;;;;;5051744;28;20048;-58
2022/05/15 08:25:44;;;;;;;0.13;0.13;;;;;;;;;;5057009;28;20025;-57
2022/05/15 08:28:09;;;;;;;0.00;0.00;;;;;;;;;;5053662;28;20395;-58
2022/05/15 08:30:35;;;;;;;0.00;0.00;;;;;;;;;;5058646;28;20040;-53
2022/05/15 08:33:01;;;;;;;0.30;0.30;;;;;;;;;;5048838;28;20033;-59
2022/05/15 08:35:27;;;;;;;0.00;0.00;;;;;;;;;;5054085;28;20436;-58
2022/05/15 08:37:53;;;;;;;0.00;0.00;;;;;;;;;;5052097;28;20948;-57
2022/05/15 08:40:21;;;;;;;0.55;0.38;;;;;;;;;;5056721;28;20078;-57
2022/05/15 08:42:54;;;;;;;0.00;0.00;;;;;;;;;;5048894;28;20020;-59
2022/05/15 08:45:21;;;;;;;0.00;0.00;;;;;;;;;;5053428;28;20531;-58
2022/05/15 08:47:47;;;;;;;0.10;0.10;;;;;;;;;;5051202;28;20021;-58
2022/05/15 08:50:14;;;;;;;0.00;0.00;;;;;;;;;;5048676;28;20029;-58
2022/05/15 08:52:46;;;;;;;0.00;0.00;;;;;;;;;;5059518;28;20836;-57
2022/05/15 08:55:21;;;;;;;0.00;0.00;;;;;;;;;;5041557;28;20071;-58
2022/05/15 08:57:49;;;;;;;0.15;0.15;;;;;;;;;;5051359;28;20055;-57
2022/05/15 09:00:16;;;;;;;0.00;0.00;;;;;;;;;;5046978;28;20501;-59
2022/05/15 09:02:42;;;;;;;0.00;0.00;;;;;;;;;;5057627;28;20040;-58
2022/05/15 09:05:09;;;;;;;0.00;0.00;;;;;;;;;;5061852;28;20023;-58
2022/05/15 09:07:34;;;;;;;1.35;1.35;;;;;;;;;;5049670;28;20135;-58
2022/05/15 09:10:11;;;;;;;0.00;0.00;;;;;;;;;;5056553;28;20189;-58
2022/05/15 09:12:37;;;;;;;0.00;0.00;;;;;;;;;;5057274;28;20154;-57
2022/05/15 09:15:19;;;;;;;0.00;0.00;;;;;;;;;;5062468;28;20099;-59
2022/05/15 09:17:45;;;;;;;0.00;0.00;;;;;;;;;;5053287;28;20368;-58
2022/05/15 09:20:20;;;;;;;2.55;1.77;;;;;;;;;;5050200;28;20116;-57
2022/05/15 09:22:47;;;;;;;0.00;0.00;;;;;;;;;;5047099;28;20431;-57
2022/05/15 09:25:18;;;;;;;0.00;0.00;;;;;;;;;;5058008;28;20017;-58
2022/05/15 09:28:02;;;;;;;0.17;0.17;;;;;;;;;;5057038;28;20441;-58
2022/05/15 09:30:33;;;;;;;0.00;0.00;;;;;;;;;;5052762;28;20052;-58
2022/05/15 09:32:59;;;;;;;0.00;0.00;;;;;;;;;;5054857;28;20032;-57
2022/05/15 09:35:27;;;;;;;2.22;2.10;;;;;;;;;;5050806;28;20469;-57
2022/05/15 09:43:31;;;;;;;0.00;0.00;;;;;;;;;;5045429;28;20043;-57
2022/05/15 09:45:57;;;;;;;0.10;0.10;;;;;;;;;;5053130;28;20052;-58
2022/05/15 09:48:24;;;;;;;0.00;0.00;;;;;;;;;;5061563;28;20329;-57
2022/05/15 09:50:50;;;;;;;0.00;0.00;;;;;;;;;;5058019;28;20359;-58
2022/05/15 09:53:24;;;;;;;0.00;0.00;;;;;;;;;;5049352;28;20049;-57
2022/05/15 09:55:58;;;;;;;0.00;0.00;;;;;;;;;;5057625;28;20029;-57
2022/05/15 09:58:23;;;;;;;0.10;0.10;;;;;;;;;;5059054;28;20675;-58
2022/05/15 10:00:49;;;;;;;0.93;0.93;;;;;;;;;;5041538;28;20025;-57
2022/05/15 10:03:16;;;;;;;0.00;0.00;;;;;;;;;;5058591;28;20032;-58
2022/05/15 10:05:41;;;;;;;0.00;0.00;;;;;;;;;;5052740;28;20032;-57
2022/05/15 10:08:09;;;;;;;2.00;1.85;;;;;;;;;;5051777;28;20384;-58
2022/05/15 10:10:57;;;;;;;0.00;0.00;;;;;;;;;;5054285;28;20021;-61
2022/05/15 10:13:25;;;;;;;0.00;0.00;;;;;;;;;;5059597;28;20097;-61
2022/05/15 10:15:51;;;;;;;0.00;0.00;;;;;;;;;;5049517;28;20287;-61
2022/05/15 10:18:19;;;;;;;0.00;0.00;;;;;;;;;;5049353;28;20032;-61
2022/05/15 10:20:45;;;;;;;0.28;0.25;;;;;;;;;;5057754;28;20097;-61
2022/05/15 10:23:13;;;;;;;0.30;0.30;;;;;;;;;;5056441;28;20048;-62
2022/05/15 10:25:47;;;;;;;0.22;0.22;;;;;;;;;;5058561;28;20103;-60
2022/05/15 10:28:26;;;;;;;0.00;0.00;;;;;;;;;;5051474;28;20017;-61
2022/05/15 10:31:01;;;;;;;0.00;0.00;;;;;;;;;;5057051;28;20405;-60
2022/05/15 10:33:27;;;;;;;0.00;0.00;;;;;;;;;;5055511;28;20473;-61
2022/05/15 10:36:08;;;;;;;0.63;0.52;;;;;;;;;;5051900;28;20033;-61
2022/05/15 10:38:42;;;;;;;0.00;0.00;;;;;;;;;;5057265;28;20120;-61
2022/05/15 10:41:23;;;;;;;0.00;0.00;;;;;;;;;;5056208;28;20013;-61
2022/05/15 10:43:58;;;;;;;0.00;0.00;;;;;;;;;;5059689;28;20059;-61
2022/05/15 10:46:26;;;;;;;0.00;0.00;;;;;;;;;;5055051;28;20029;-61
2022/05/15 10:48:51;;;;;;;0.05;0.05;;;;;;;;;;5058910;28;20108;-61
2022/05/15 10:51:36;;;;;;;0.03;0.03;;;;;;;;;;5061756;28;20127;-61
2022/05/15 10:57:21;;;;;;;0.00;0.00;;;;;;;;;;5049880;28;20155;-61
2022/05/15 10:59:53;;;;;;;0.00;0.00;;;;;;;;;;5050535;28;21496;-61
2022/05/15 11:02:21;;;;;;;0.38;0.30;;;;;;;;;;5053213;28;20036;-61
2022/05/15 11:04:52;;;;;;;0.10;0.10;;;;;;;;;;5045547;28;20444;-62
2022/05/15 11:07:21;;;;;;;0.13;0.13;;;;;;;;;;5053500;28;20105;-61
2022/05/15 11:10:06;;;;;;;0.47;0.47;;;;;;;;;;5052979;28;20016;-61
2022/05/15 11:12:31;;;;;;;0.85;0.85;;;;;;;;;;5025164;28;20337;-61
2022/05/15 11:15:02;;;;;;;0.08;0.08;;;;;;;;;;5055985;28;20405;-62
2022/05/15 11:17:40;;;;;;;26.90;3.50;;;;;;;;;;5051425;28;20023;-62
2022/05/15 11:20:08;;;;;;;0.00;0.00;;;;;;;;;;5059591;28;20020;-62
2022/05/15 11:22:37;;;;;;;0.47;0.47;;;;;;;;;;5062923;28;20049;-61
2022/05/15 11:25:04;;;;;;;;;;;;;;;;;;5049294;28;20021;-61
2022/05/15 11:27:49;;;;;;;0.05;0.05;;;;;;;;;;5061087;28;19954;-62
2022/05/15 11:30:24;;;;;;;0.52;0.50;;;;;;;;;;5059550;28;20083;-61
2022/05/15 11:32:52;;;;;;;0.00;0.00;;;;;;;;;;5055283;28;20025;-61
2022/05/15 11:35:17;;;;;;;0.22;0.22;;;;;;;;;;5054161;28;20021;-61
2022/05/15 11:37:43;;;;;;;0.00;0.00;;;;;;;;;;5060566;28;20054;-61
2022/05/15 11:40:09;;;;;;;0.50;0.50;;;;;;;;;;5058820;28;20348;-61
2022/05/15 11:42:35;;;;;;;0.47;0.47;;;;;;;;;;5061980;28;20267;-61
2022/05/15 11:45:20;;;;;;;4.78;0.40;;;;;;;;;;5054872;28;20027;-62
2022/05/15 11:47:57;;;;;;;0.00;0.00;;;;;;;;;;5056511;28;20025;-64
2022/05/15 11:50:36;;;;;;;0.55;0.55;;;;;;;;;;5062328;28;20050;-62
2022/05/15 11:53:04;;;;;;;0.00;0.00;;;;;;;;;;5056047;28;20440;-63
2022/05/15 11:55:38;;;;;;;0.32;0.32;;;;;;;;;;5061423;28;20021;-60
2022/05/15 11:58:26;;;;;;;3.70;3.40;;;;;;;;;;5059457;28;20029;-61
2022/05/15 12:01:02;;;;;;;0.00;0.00;;;;;;;;;;5057805;28;20059;-60
2022/05/15 12:03:34;;;;;;;0.47;0.40;;;;;;;;;;5049387;28;20049;-61
2022/05/15 12:06:10;;;;;;;0.00;0.00;;;;;;;;;;5057996;28;20428;-61
2022/05/15 12:08:37;;;;;;;0.40;0.40;;;;;;;;;;5060317;28;20462;-62
2022/05/15 12:11:18;;;;;;;0.17;0.17;;;;;;;;;;5049241;28;20021;-62
2022/05/15 12:13:45;;;;;;;1.13;1.00;;;;;;;;;;5049512;28;20029;-60
2022/05/15 12:16:17;;;;;;;0.00;0.00;;;;;;;;;;5054159;28;20032;-61
2022/05/15 12:18:43;;;;;;;1.52;1.17;;;;;;;;;;5049461;28;20017;-60
2022/05/15 12:21:09;;;;;;;0.35;0.35;;;;;;;;;;5057372;28;20016;-62
2022/05/15 12:23:36;;;;;;;0.20;0.20;;;;;;;;;;5051867;28;20377;-61
2022/05/15 12:26:01;;;;;;;0.00;0.00;;;;;;;;;;5056522;28;20033;-61
2022/05/15 12:28:51;;;;;;;0.10;0.10;;;;;;;;;;5052088;28;20021;-62
2022/05/15 12:31:39;;;;;;;0.15;0.15;;;;;;;;;;5054026;28;20406;-60
2022/05/15 12:34:11;;;;;;;0.00;0.00;;;;;;;;;;5043942;28;20064;-61
2022/05/15 12:36:39;;;;;;;0.10;0.10;;;;;;;;;;5052925;28;20075;-61
2022/05/15 12:39:05;;;;;;;0.88;0.88;;;;;;;;;;5057865;28;20016;-62
2022/05/15 12:41:35;;;;;;;0.13;0.13;;;;;;;;;;5063101;28;20028;-62
2022/05/15 12:44:02;;;;;;;0.00;0.00;;;;;;;;;;5056804;28;20035;-60
2022/05/15 12:46:29;;;;;;;0.00;0.00;;;;;;;;;;5051497;28;20405;-62
2022/05/15 12:48:55;;;;;;;0.00;0.00;;;;;;;;;;5049850;28;20433;-62
2022/05/15 12:51:30;;;;;;;0.22;0.22;;;;;;;;;;5054928;28;20033;-61
2022/05/15 12:53:56;;;;;;;0.65;0.55;;;;;;;;;;5061737;28;20029;-60
2022/05/15 12:56:25;;;;;;;0.00;0.00;;;;;;;;;;5060551;28;20124;-60
2022/05/15 12:58:54;;;;;;;0.00;0.00;;;;;;;;;;5057272;28;20551;-60
2022/05/15 13:01:20;;;;;;;0.00;0.00;;;;;;;;;;5056411;28;20128;-59
2022/05/15 13:03:49;;;;;;;0.00;0.00;;;;;;;;;;5059166;28;20096;-59
2022/05/15 13:06:17;;;;;;;0.00;0.00;;;;;;;;;;5061119;28;20059;-60
2022/05/15 13:08:43;;;;;;;0.00;0.00;;;;;;;;;;5058689;28;20481;-60
2022/05/15 13:11:11;;;;;;;0.00;0.00;;;;;;;;;;5053960;28;20107;-60
2022/05/15 13:13:37;;;;;;;0.10;0.10;;;;;;;;;;5057636;28;20442;-61
2022/05/15 13:16:04;;;;;;;0.00;0.00;;;;;;;;;;5060168;28;20115;-58
2022/05/15 13:18:34;;;;;;;0.15;0.15;;;;;;;;;;5054815;28;20074;-60
2022/05/15 13:21:01;;;;;;;0.00;0.00;;;;;;;;;;5058478;28;20024;-60
2022/05/15 13:23:30;;;;;;;0.00;0.00;;;;;;;;;;5056605;28;20017;-60
2022/05/15 13:25:55;;;;;;;0.00;0.00;;;;;;;;;;5058397;28;20033;-60
2022/05/15 13:28:21;;;;;;;0.00;0.00;;;;;;;;;;5052002;28;20096;-61
2022/05/15 13:30:46;;;;;;;0.00;0.00;;;;;;;;;;5054476;28;20024;-60
2022/05/15 13:33:16;;;;;;;0.00;0.00;;;;;;;;;;5055903;28;20044;-60
2022/05/15 13:35:46;;;;;;;0.55;0.35;;;;;;;;;;5059775;28;20098;-58
2022/05/15 13:38:17;;;;;;;0.05;0.05;;;;;;;;;;5061109;28;20055;-60
2022/05/15 13:43:56;;;;;;;0.57;0.57;;;;;;;;;;5057482;28;20044;-59
2022/05/15 13:46:23;;;;;;;0.00;0.00;;;;;;;;;;5054826;28;20393;-60
2022/05/15 13:48:56;;;;;;;0.05;0.03;;;;;;;;;;5051255;28;20024;-60
2022/05/15 13:51:47;;;;;;;0.22;0.20;;;;;;;;;;5048439;28;20031;-60
2022/05/15 13:54:23;;;;;;;0.00;0.00;;;;;;;;;;5056165;28;20036;-60
2022/05/15 13:56:57;;;;;;;0.75;0.20;;;;;;;;;;5053236;28;20028;-59
2022/05/15 13:59:45;;;;;;;0.03;0.03;;;;;;;;;;5052293;28;20036;-60
2022/05/15 14:02:14;;;;;;;0.20;0.20;;;;;;;;;;5042109;28;20183;-60
2022/05/15 14:04:41;;;;;;;0.00;0.00;;;;;;;;;;5058015;28;20782;-59
2022/05/15 14:07:06;;;;;;;0.00;0.00;;;;;;;;;;5059602;28;20052;-60
2022/05/15 14:09:41;;;;;;;0.52;0.52;;;;;;;;;;5052121;28;20049;-60
2022/05/15 14:12:07;;;;;;;8.02;1.25;;;;;;;;;;5055016;28;20064;-61
2022/05/15 14:14:51;;;;;;;0.00;0.00;;;;;;;;;;5052095;28;20050;-61
2022/05/15 14:17:22;;;;;;;0.00;0.00;;;;;;;;;;5050737;28;20368;-61
2022/05/15 14:19:50;;;;;;;0.00;0.00;;;;;;;;;;5055683;28;20377;-60
2022/05/15 14:22:15;;;;;;;0.00;0.00;;;;;;;;;;5050412;28;20041;-61
2022/05/15 14:24:41;;;;;;;0.43;0.10;;;;;;;;;;5054066;28;20067;-61
2022/05/15 14:27:06;;;;;;;0.00;0.00;;;;;;;;;;5051069;28;20425;-61
2022/05/15 14:29:31;;;;;;;0.00;0.00;;;;;;;;;;5042351;28;20137;-60
2022/05/15 14:32:01;;;;;;;0.00;0.00;;;;;;;;;;5053664;28;20493;-60
2022/05/15 14:34:26;;;;;;;0.00;0.00;;;;;;;;;;5058881;28;20030;-60
2022/05/15 14:36:51;;;;;;;0.28;0.28;;;;;;;;;;5053147;28;20129;-61
2022/05/15 14:39:17;;;;;;;3.80;2.47;;;;;;;;;;5054088;28;20017;-61
2022/05/15 14:41:42;;;;;;;0.00;0.00;;;;;;;;;;5053533;28;20263;-60
2022/05/15 14:44:07;;;;;;;0.00;0.00;;;;;;;;;;5050614;28;20029;-60
2022/05/15 14:46:34;;;;;;;0.00;0.00;;;;;;;;;;5051966;28;20025;-61
2022/05/15 14:48:59;;;;;;;0.00;0.00;;;;;;;;;;5055650;28;20056;-61
2022/05/15 14:51:26;;;;;;;0.00;0.00;;;;;;;;;;5058526;28;20044;-61
2022/05/15 14:53:53;;;;;;;0.00;0.00;;;;;;;;;;5056314;28;20475;-62
2022/05/15 14:56:19;;;;;;;0.00;0.00;;;;;;;;;;5050162;28;20055;-62
2022/05/15 14:58:44;;;;;;;0.00;0.00;;;;;;;;;;5050430;28;20053;-62
2022/05/15 15:01:10;;;;;;;0.00;0.00;;;;;;;;;;5051275;28;20430;-62
2022/05/15 15:03:35;;;;;;;0.00;0.00;;;;;;;;;;5053846;28;20025;-62
2022/05/15 15:06:02;;;;;;;0.00;0.00;;;;;;;;;;5055488;28;20484;-62
2022/05/15 15:08:28;;;;;;;0.00;0.00;;;;;;;;;;5057237;28;20031;-62
2022/05/15 15:11:26;;;;;;;0.00;0.00;;;;;;;;;;5054226;28;20028;-62